KMFE

Mc Allen Miller International Airport

Mc Allen, Texas, USA
METAR KMFE 170553Z 00000KT 5SM BR BKN009 OVC019 11/09 A3008 RMK AO2 SLP183 60000 T01060094 10106 20100 401110094 50005
Observed Flight Rules
Dec-17 @ 05:53 UTC (20 minutes ago) Instrument Flight Rules
Wind Visibility Clouds Conditions
Calm 5 miles
  • Broken at 900' AGL
  • Overcast at 1,900' AGL
  • Mist
Temperatures Readings
Current 11°C / 52°F
Dewpoint 9°C / 48°F
Humidity 88%
Altimeter 30.08" Hg
Pressure 1018.3 hPa
Elevation 38
METAR KMFE 170553Z 00000KT 5SM BR BKN009 OVC019 11/09 A3008 RMK AO2 SLP183 60000 T01060094 10106 20100 401110094 50005
Observed Flight Rules
Dec-17 @ 05:53 UTC
(20 minutes ago)
IFR
Wind Visibility
Calm 5 miles
Clouds
  • Broken at 900' AGL
  • Overcast at 1,900' AGL
Conditions
  • Mist
Temperature Dewpoint
11°C / 52°F 9°C / 48°F
Humidity Altimeter Pressure
88% 30.08" Hg 1018.3 hPa